Time;durP1;ratioP1;P1;durP2;ratioP2;P2;SDS_P1;SDS_P2;PMS_P1;PMS_P2;Temp;Humidity;BMP_temperature;BMP_pressure;BME280_temperature;BME280_humidity;BME280_pressure;Samples;Min_cycle;Max_cycle;Signal;HPM_P1;HPM_P2
2021/05/15 00:01:37;;;;;;;0.75;0.47;;;;;;;;;;4943394;28;20424;-82
2021/05/15 00:04:02;;;;;;;1.38;0.60;;;;;;;;;;4952062;28;20081;-82
2021/05/15 00:06:28;;;;;;;1.02;0.40;;;;;;;;;;4962470;28;20039;-82
2021/05/15 00:08:54;;;;;;;1.10;0.47;;;;;;;;;;4923072;28;20031;-81
2021/05/15 00:11:19;;;;;;;2.28;0.40;;;;;;;;;;4928063;28;20096;-82
2021/05/15 00:13:45;;;;;;;0.80;0.30;;;;;;;;;;4974435;28;20027;-82
2021/05/15 00:16:10;;;;;;;1.30;0.57;;;;;;;;;;4974199;28;20412;-81
2021/05/15 00:18:39;;;;;;;1.73;0.40;;;;;;;;;;4991187;28;20515;-82
2021/05/15 00:21:06;;;;;;;0.82;0.40;;;;;;;;;;4973237;28;20386;-82
2021/05/15 00:23:31;;;;;;;3.00;0.40;;;;;;;;;;4955520;28;20042;-81
2021/05/15 00:25:58;;;;;;;1.00;0.40;;;;;;;;;;4940373;28;20047;-81
2021/05/15 00:28:23;;;;;;;1.27;0.50;;;;;;;;;;4939637;28;20035;-81
2021/05/15 00:30:49;;;;;;;1.80;0.45;;;;;;;;;;4955299;28;20050;-81
2021/05/15 00:33:14;;;;;;;1.55;0.47;;;;;;;;;;4968854;28;20420;-82
2021/05/15 00:35:39;;;;;;;3.55;0.50;;;;;;;;;;4968446;28;20489;-82
2021/05/15 00:38:05;;;;;;;1.15;0.30;;;;;;;;;;4957972;28;20397;-82
2021/05/15 00:40:30;;;;;;;0.85;0.45;;;;;;;;;;4942503;28;20397;-81
2021/05/15 00:42:56;;;;;;;1.10;0.30;;;;;;;;;;4941755;28;20038;-82
2021/05/15 00:45:21;;;;;;;0.90;0.20;;;;;;;;;;4958051;28;20141;-81
2021/05/15 00:47:47;;;;;;;0.82;0.28;;;;;;;;;;4957956;28;20112;-81
2021/05/15 00:50:12;;;;;;;1.58;0.45;;;;;;;;;;4958102;28;20066;-82
2021/05/15 00:52:38;;;;;;;0.90;0.30;;;;;;;;;;4955931;28;20034;-81
2021/05/15 00:55:11;;;;;;;0.90;0.30;;;;;;;;;;4970841;28;20047;-81
2021/05/15 00:57:37;;;;;;;0.70;0.30;;;;;;;;;;4954730;28;20035;-82
2021/05/15 01:00:06;;;;;;;2.05;0.30;;;;;;;;;;4939294;28;20043;-81
2021/05/15 01:02:31;;;;;;;0.82;0.30;;;;;;;;;;4959404;28;20039;-81
2021/05/15 01:04:57;;;;;;;0.93;0.30;;;;;;;;;;4975185;28;20044;-82
2021/05/15 01:07:22;;;;;;;0.60;0.30;;;;;;;;;;4977690;28;20034;-82
2021/05/15 01:09:48;;;;;;;0.70;0.30;;;;;;;;;;4977719;28;20343;-81
2021/05/15 01:12:13;;;;;;;0.77;0.40;;;;;;;;;;4975520;28;20061;-82
2021/05/15 01:14:39;;;;;;;1.45;0.30;;;;;;;;;;4993387;28;20110;-81
2021/05/15 01:17:07;;;;;;;0.70;0.22;;;;;;;;;;4977249;28;20070;-81
2021/05/15 01:19:34;;;;;;;1.48;0.70;;;;;;;;;;4961774;28;20034;-81
2021/05/15 01:22:00;;;;;;;0.52;0.20;;;;;;;;;;4968980;28;20041;-81
2021/05/15 01:24:25;;;;;;;0.80;0.40;;;;;;;;;;4942017;28;20129;-81
2021/05/15 01:26:50;;;;;;;1.17;0.38;;;;;;;;;;4942391;28;20042;-81
2021/05/15 01:29:17;;;;;;;0.70;0.30;;;;;;;;;;4977534;28;20030;-81
2021/05/15 01:31:42;;;;;;;1.10;0.30;;;;;;;;;;4975568;28;20035;-81
2021/05/15 01:34:08;;;;;;;0.70;0.20;;;;;;;;;;4977402;28;20121;-81
2021/05/15 01:36:39;;;;;;;0.93;0.40;;;;;;;;;;4955828;28;20378;-81
2021/05/15 01:39:07;;;;;;;1.05;0.30;;;;;;;;;;4958540;28;20031;-82
2021/05/15 01:41:32;;;;;;;1.52;0.40;;;;;;;;;;4942931;28;20129;-82
2021/05/15 01:43:58;;;;;;;0.77;0.20;;;;;;;;;;4969815;28;20045;-81
2021/05/15 01:46:24;;;;;;;0.65;0.28;;;;;;;;;;4941447;28;20038;-81
2021/05/15 01:48:49;;;;;;;0.70;0.30;;;;;;;;;;4950478;28;20069;-81
2021/05/15 01:51:15;;;;;;;1.13;0.43;;;;;;;;;;4960589;28;20042;-81
2021/05/15 01:53:45;;;;;;;1.33;0.85;;;;;;;;;;4960281;28;20042;-82
2021/05/15 01:56:12;;;;;;;0.70;0.22;;;;;;;;;;4976851;28;20409;-81
2021/05/15 01:58:37;;;;;;;0.50;0.28;;;;;;;;;;4976783;28;20121;-81
2021/05/15 02:01:03;;;;;;;0.95;0.70;;;;;;;;;;4961001;28;20473;-81
2021/05/15 02:03:29;;;;;;;0.60;0.30;;;;;;;;;;4947554;28;20035;-81
2021/05/15 02:05:55;;;;;;;1.40;0.30;;;;;;;;;;4941708;28;20034;-82
2021/05/15 02:08:21;;;;;;;0.60;0.25;;;;;;;;;;4942324;28;20446;-81
2021/05/15 02:10:46;;;;;;;0.70;0.30;;;;;;;;;;4941449;28;20042;-81
2021/05/15 02:13:12;;;;;;;1.20;0.30;;;;;;;;;;4942556;28;20061;-81
2021/05/15 02:15:38;;;;;;;0.88;0.20;;;;;;;;;;4991811;28;20088;-81
2021/05/15 02:18:04;;;;;;;2.15;0.30;;;;;;;;;;4960242;28;20042;-82
2021/05/15 02:20:30;;;;;;;0.47;0.20;;;;;;;;;;4992547;28;20037;-81
2021/05/15 02:22:56;;;;;;;0.65;0.20;;;;;;;;;;4962941;28;20038;-82
2021/05/15 02:25:22;;;;;;;0.65;0.20;;;;;;;;;;4944273;28;20238;-81
2021/05/15 02:27:48;;;;;;;0.85;0.22;;;;;;;;;;4960115;28;20144;-81
2021/05/15 02:30:14;;;;;;;0.75;0.25;;;;;;;;;;4941251;28;20043;-81
2021/05/15 02:32:39;;;;;;;1.40;0.40;;;;;;;;;;4940729;28;20465;-81
2021/05/15 02:35:05;;;;;;;0.80;0.28;;;;;;;;;;4941964;28;20035;-81
2021/05/15 02:37:31;;;;;;;0.98;0.20;;;;;;;;;;4956795;28;20493;-82
2021/05/15 02:39:56;;;;;;;0.75;0.20;;;;;;;;;;4956815;28;20034;-81
2021/05/15 02:42:21;;;;;;;0.70;0.30;;;;;;;;;;4957407;28;20097;-81
2021/05/15 02:44:47;;;;;;;2.20;0.40;;;;;;;;;;4991991;28;20417;-82
2021/05/15 02:47:13;;;;;;;0.30;0.20;;;;;;;;;;4975546;28;20034;-81
2021/05/15 02:49:38;;;;;;;0.60;0.30;;;;;;;;;;4992171;28;20077;-81
2021/05/15 02:52:03;;;;;;;0.60;0.28;;;;;;;;;;4991784;28;20437;-81
2021/05/15 02:54:29;;;;;;;0.95;0.55;;;;;;;;;;4975765;28;20038;-82
2021/05/15 02:56:54;;;;;;;0.68;0.20;;;;;;;;;;4975605;28;20130;-82
2021/05/15 02:59:20;;;;;;;0.82;0.30;;;;;;;;;;4982264;28;20405;-81
2021/05/15 03:01:46;;;;;;;0.82;0.20;;;;;;;;;;4991564;28;20421;-81
2021/05/15 03:04:12;;;;;;;1.20;0.30;;;;;;;;;;4980014;28;20038;-81
2021/05/15 03:06:37;;;;;;;1.38;0.10;;;;;;;;;;4975600;28;20116;-81
2021/05/15 03:09:03;;;;;;;0.60;0.30;;;;;;;;;;4943716;28;20401;-81
2021/05/15 03:11:28;;;;;;;0.88;0.40;;;;;;;;;;4943236;28;20034;-81
2021/05/15 03:13:54;;;;;;;1.50;0.30;;;;;;;;;;4944117;28;20041;-81
2021/05/15 03:16:19;;;;;;;1.00;0.65;;;;;;;;;;4990902;28;20416;-81
2021/05/15 03:18:45;;;;;;;1.13;0.30;;;;;;;;;;4991355;28;20378;-81
2021/05/15 03:21:10;;;;;;;1.00;0.20;;;;;;;;;;4987278;28;20421;-81
2021/05/15 03:23:35;;;;;;;0.80;0.30;;;;;;;;;;4956821;28;20082;-81
2021/05/15 03:26:01;;;;;;;1.15;0.25;;;;;;;;;;4940395;28;20070;-81
2021/05/15 03:28:26;;;;;;;0.75;0.28;;;;;;;;;;4939159;28;20425;-81
2021/05/15 03:30:52;;;;;;;0.50;0.20;;;;;;;;;;4952929;28;20421;-81
2021/05/15 03:33:17;;;;;;;0.98;0.28;;;;;;;;;;4973537;28;20464;-81
2021/05/15 03:35:43;;;;;;;0.65;0.20;;;;;;;;;;4984802;28;20069;-81
2021/05/15 03:38:09;;;;;;;1.38;0.20;;;;;;;;;;4974632;28;20408;-81
2021/05/15 03:40:35;;;;;;;0.82;0.57;;;;;;;;;;4959225;28;20065;-81
2021/05/15 03:43:00;;;;;;;0.90;0.20;;;;;;;;;;4958839;28;20121;-81
2021/05/15 03:45:26;;;;;;;0.75;0.20;;;;;;;;;;4959579;28;20568;-81
2021/05/15 03:47:51;;;;;;;1.13;0.40;;;;;;;;;;4955883;28;20456;-81
2021/05/15 03:50:17;;;;;;;1.08;0.20;;;;;;;;;;4942664;28;20460;-81
2021/05/15 03:52:42;;;;;;;0.43;0.13;;;;;;;;;;4955479;28;20386;-82
2021/05/15 03:55:08;;;;;;;2.13;0.28;;;;;;;;;;4939655;28;20051;-81
2021/05/15 03:57:33;;;;;;;0.47;0.20;;;;;;;;;;4940103;28;20417;-81
2021/05/15 03:59:59;;;;;;;0.80;0.30;;;;;;;;;;4938853;28;20417;-81
2021/05/15 04:02:24;;;;;;;0.52;0.17;;;;;;;;;;4940790;28;20486;-81
2021/05/15 04:04:51;;;;;;;0.95;0.35;;;;;;;;;;4941831;28;20038;-82
2021/05/15 04:07:16;;;;;;;0.45;0.20;;;;;;;;;;4972112;28;20030;-81
2021/05/15 04:09:42;;;;;;;0.30;0.20;;;;;;;;;;4939690;28;20050;-81
2021/05/15 04:12:08;;;;;;;0.52;0.50;;;;;;;;;;4956204;28;20137;-81
2021/05/15 04:14:42;;;;;;;2.55;0.52;;;;;;;;;;4939056;28;20058;-81
2021/05/15 04:19:34;;;;;;;0.50;0.20;;;;;;;;;;4955125;28;20524;-81
2021/05/15 04:21:59;;;;;;;0.80;0.30;;;;;;;;;;4946772;28;20030;-81
2021/05/15 04:24:26;;;;;;;0.55;0.30;;;;;;;;;;4958392;28;20034;-81
2021/05/15 04:26:56;;;;;;;0.55;0.32;;;;;;;;;;4955362;28;20043;-81
2021/05/15 04:29:21;;;;;;;0.35;0.20;;;;;;;;;;4940128;28;20031;-81
2021/05/15 04:31:47;;;;;;;0.88;0.30;;;;;;;;;;4967803;28;20104;-81
2021/05/15 04:34:13;;;;;;;0.93;0.30;;;;;;;;;;4974675;28;20073;-81
2021/05/15 04:36:38;;;;;;;0.93;0.40;;;;;;;;;;4961747;28;20034;-81
2021/05/15 04:39:04;;;;;;;1.35;0.50;;;;;;;;;;4943511;28;20027;-81
2021/05/15 04:41:30;;;;;;;1.55;0.50;;;;;;;;;;4945850;28;20030;-81
2021/05/15 04:43:55;;;;;;;0.60;0.30;;;;;;;;;;4929343;28;20117;-81
2021/05/15 04:46:21;;;;;;;1.33;0.47;;;;;;;;;;4958702;28;20108;-81
2021/05/15 04:48:46;;;;;;;1.48;0.45;;;;;;;;;;4944111;28;20042;-81
2021/05/15 04:51:13;;;;;;;1.13;0.45;;;;;;;;;;4943377;28;20126;-81
2021/05/15 04:53:38;;;;;;;0.95;0.50;;;;;;;;;;4942346;28;20050;-81
2021/05/15 04:56:04;;;;;;;1.35;0.60;;;;;;;;;;4942356;28;20418;-81
2021/05/15 04:58:30;;;;;;;0.93;0.43;;;;;;;;;;4943318;28;20042;-81
2021/05/15 05:00:55;;;;;;;1.95;0.50;;;;;;;;;;4967361;28;20092;-81
2021/05/15 05:03:21;;;;;;;1.15;0.50;;;;;;;;;;4971941;28;20034;-80
2021/05/15 05:05:46;;;;;;;1.05;0.40;;;;;;;;;;4961767;28;20104;-80
2021/05/15 05:08:12;;;;;;;0.73;0.50;;;;;;;;;;4961707;28;20034;-80
2021/05/15 05:10:37;;;;;;;0.80;0.50;;;;;;;;;;4977399;28;20066;-80
2021/05/15 05:13:03;;;;;;;0.95;0.50;;;;;;;;;;4944907;28;20472;-80
2021/05/15 05:15:29;;;;;;;1.13;0.45;;;;;;;;;;4977443;28;20113;-80
2021/05/15 05:17:54;;;;;;;0.80;0.47;;;;;;;;;;4977779;28;20065;-80
2021/05/15 05:20:20;;;;;;;0.93;0.32;;;;;;;;;;4993736;28;20027;-80
2021/05/15 05:22:46;;;;;;;1.83;0.50;;;;;;;;;;4966337;28;20074;-80
2021/05/15 05:25:12;;;;;;;2.08;0.50;;;;;;;;;;4961243;28;20053;-80
2021/05/15 05:27:45;;;;;;;0.52;0.32;;;;;;;;;;4976976;28;20162;-80
2021/05/15 05:30:11;;;;;;;1.35;0.65;;;;;;;;;;4977323;28;20125;-81
2021/05/15 05:32:36;;;;;;;0.93;0.50;;;;;;;;;;4978610;28;20045;-80
2021/05/15 05:35:02;;;;;;;1.15;0.50;;;;;;;;;;4977180;28;20042;-80
2021/05/15 05:37:28;;;;;;;5.95;0.90;;;;;;;;;;4977476;28;20393;-80
2021/05/15 05:39:54;;;;;;;2.15;0.50;;;;;;;;;;4942697;28;20042;-79
2021/05/15 05:42:20;;;;;;;0.90;0.40;;;;;;;;;;4958308;28;20126;-80
2021/05/15 05:44:45;;;;;;;2.20;0.63;;;;;;;;;;4943333;28;20042;-80
2021/05/15 05:47:11;;;;;;;3.13;0.70;;;;;;;;;;4954411;28;20058;-79
2021/05/15 05:49:37;;;;;;;2.08;0.50;;;;;;;;;;4958074;28;20508;-80
2021/05/15 05:52:03;;;;;;;1.48;0.50;;;;;;;;;;4957212;28;20149;-80
2021/05/15 05:54:28;;;;;;;3.72;0.77;;;;;;;;;;4941662;28;20103;-79
2021/05/15 05:56:54;;;;;;;1.17;0.50;;;;;;;;;;4940990;28;20460;-79
2021/05/15 05:59:19;;;;;;;3.28;0.68;;;;;;;;;;4942538;28;20460;-78
2021/05/15 06:01:45;;;;;;;1.52;0.52;;;;;;;;;;4970951;28;20445;-78
2021/05/15 06:04:11;;;;;;;0.98;0.40;;;;;;;;;;4974357;28;20042;-79
2021/05/15 06:06:36;;;;;;;6.57;0.90;;;;;;;;;;4990635;28;20416;-79
2021/05/15 06:09:03;;;;;;;3.83;0.50;;;;;;;;;;4996356;28;20386;-79
2021/05/15 06:11:33;;;;;;;4.90;0.80;;;;;;;;;;4976060;28;20775;-79
2021/05/15 06:13:58;;;;;;;2.40;0.52;;;;;;;;;;4960979;28;20050;-78
2021/05/15 06:16:23;;;;;;;2.30;1.15;;;;;;;;;;4960018;28;20476;-78
2021/05/15 06:18:49;;;;;;;2.58;0.73;;;;;;;;;;4960868;28;20412;-78
2021/05/15 06:21:14;;;;;;;2.58;0.65;;;;;;;;;;4976131;28;20038;-78
2021/05/15 06:23:40;;;;;;;1.00;0.68;;;;;;;;;;4998444;28;20401;-77
2021/05/15 06:26:10;;;;;;;4.78;0.77;;;;;;;;;;4959642;28;20048;-78
2021/05/15 06:28:36;;;;;;;3.92;0.70;;;;;;;;;;4961144;28;20096;-78
2021/05/15 06:31:05;;;;;;;1.15;0.68;;;;;;;;;;4962335;28;20027;-78
2021/05/15 06:33:31;;;;;;;5.53;1.40;;;;;;;;;;4962270;28;20034;-78
2021/05/15 06:35:57;;;;;;;5.70;0.98;;;;;;;;;;4976119;28;20034;-78
2021/05/15 06:38:22;;;;;;;1.25;0.68;;;;;;;;;;4975973;28;20428;-78
2021/05/15 06:40:48;;;;;;;2.80;0.88;;;;;;;;;;4959704;28;20045;-79
2021/05/15 06:43:13;;;;;;;3.15;0.77;;;;;;;;;;4944036;28;20038;-78
2021/05/15 06:45:39;;;;;;;2.50;0.70;;;;;;;;;;4959569;28;20030;-78
2021/05/15 06:48:04;;;;;;;2.65;1.23;;;;;;;;;;4959898;28;20409;-77
2021/05/15 06:50:30;;;;;;;2.50;0.85;;;;;;;;;;4976328;28;20034;-78
2021/05/15 06:52:55;;;;;;;2.35;0.95;;;;;;;;;;4959553;28;20529;-78
2021/05/15 06:55:23;;;;;;;8.45;1.00;;;;;;;;;;4959536;28;20121;-77
2021/05/15 06:57:48;;;;;;;2.75;1.00;;;;;;;;;;4959763;28;20413;-78
2021/05/15 07:00:14;;;;;;;2.92;1.05;;;;;;;;;;4959303;28;20030;-77
2021/05/15 07:02:40;;;;;;;5.40;1.38;;;;;;;;;;4975494;28;20038;-77
2021/05/15 07:05:05;;;;;;;3.20;0.90;;;;;;;;;;4987532;28;20042;-77
2021/05/15 07:07:31;;;;;;;4.97;0.95;;;;;;;;;;4975115;28;20037;-78
2021/05/15 07:09:56;;;;;;;7.28;1.10;;;;;;;;;;4990095;28;20405;-77
2021/05/15 07:12:22;;;;;;;14.07;1.60;;;;;;;;;;4966445;23;20046;-77
2021/05/15 07:14:48;;;;;;;5.60;1.25;;;;;;;;;;4975291;28;20402;-78
2021/05/15 07:17:13;;;;;;;3.03;0.98;;;;;;;;;;4991722;28;20034;-77
2021/05/15 07:19:39;;;;;;;6.55;1.83;;;;;;;;;;4975009;28;20125;-78
2021/05/15 07:22:05;;;;;;;4.82;2.10;;;;;;;;;;4978591;28;20168;-78
2021/05/15 07:24:30;;;;;;;4.53;2.00;;;;;;;;;;4994079;28;20042;-77
2021/05/15 07:26:56;;;;;;;4.63;1.92;;;;;;;;;;4995059;28;20034;-77
2021/05/15 07:29:22;;;;;;;4.65;1.77;;;;;;;;;;5010922;28;20034;-77
2021/05/15 07:31:48;;;;;;;8.63;2.03;;;;;;;;;;5010636;28;20091;-78
2021/05/15 07:34:13;;;;;;;5.88;2.22;;;;;;;;;;5010404;28;20309;-77
2021/05/15 07:36:39;;;;;;;6.85;1.58;;;;;;;;;;5010639;28;20455;-78
2021/05/15 07:39:04;;;;;;;6.38;2.05;;;;;;;;;;5010792;28;20455;-78
2021/05/15 07:41:30;;;;;;;3.40;1.50;;;;;;;;;;4994211;28;20113;-77
2021/05/15 07:43:55;;;;;;;4.18;1.60;;;;;;;;;;4994155;28;20124;-77
2021/05/15 07:46:21;;;;;;;5.75;1.83;;;;;;;;;;4994459;28;20038;-77
2021/05/15 07:48:47;;;;;;;5.57;1.92;;;;;;;;;;4994397;28;20069;-77
2021/05/15 07:51:14;;;;;;;4.05;1.55;;;;;;;;;;4994295;28;20061;-78
2021/05/15 07:53:39;;;;;;;4.82;1.52;;;;;;;;;;4993932;28;20030;-77
2021/05/15 07:56:05;;;;;;;4.85;1.65;;;;;;;;;;4977844;28;20424;-77
2021/05/15 07:58:31;;;;;;;3.05;1.52;;;;;;;;;;4994222;28;20061;-78
2021/05/15 08:00:56;;;;;;;4.95;1.70;;;;;;;;;;4978140;28;20025;-78
2021/05/15 08:03:22;;;;;;;3.45;1.42;;;;;;;;;;5010575;28;20038;-77
2021/05/15 08:05:47;;;;;;;6.05;1.50;;;;;;;;;;5010237;28;20046;-78
2021/05/15 08:08:12;;;;;;;7.53;1.67;;;;;;;;;;5010439;28;20176;-79
2021/05/15 08:10:38;;;;;;;4.70;1.23;;;;;;;;;;4994355;28;20550;-80
2021/05/15 08:13:03;;;;;;;2.17;1.30;;;;;;;;;;5009927;28;20459;-79
2021/05/15 08:15:29;;;;;;;4.68;1.65;;;;;;;;;;4997025;28;20042;-80
2021/05/15 08:17:55;;;;;;;6.30;2.17;;;;;;;;;;4982013;28;20030;-80
2021/05/15 08:20:20;;;;;;;3.15;1.48;;;;;;;;;;4997945;28;20062;-80
2021/05/15 08:22:46;;;;;;;2.63;1.60;;;;;;;;;;4981688;28;20507;-82
2021/05/15 08:25:12;;;;;;;4.40;1.50;;;;;;;;;;4982006;28;20034;-81
2021/05/15 08:27:39;;;;;;;2.58;1.23;;;;;;;;;;4997715;28;20411;-81
2021/05/15 08:30:06;;;;;;;5.35;1.40;;;;;;;;;;4981802;28;20065;-80
2021/05/15 08:32:33;;;;;;;3.05;1.75;;;;;;;;;;4981492;28;20030;-80
2021/05/15 08:34:58;;;;;;;4.00;1.30;;;;;;;;;;5014217;28;20126;-80
2021/05/15 08:37:24;;;;;;;2.58;0.85;;;;;;;;;;5013225;28;20049;-80
2021/05/15 08:39:49;;;;;;;4.55;1.10;;;;;;;;;;5014063;28;20408;-80
2021/05/15 08:42:14;;;;;;;2.78;1.50;;;;;;;;;;4981011;28;20046;-80
2021/05/15 08:44:40;;;;;;;3.97;1.55;;;;;;;;;;5013817;28;20424;-80
2021/05/15 08:47:06;;;;;;;3.10;1.17;;;;;;;;;;4980998;28;20040;-80
2021/05/15 08:49:31;;;;;;;4.03;1.30;;;;;;;;;;4980839;28;20463;-80
2021/05/15 08:51:57;;;;;;;4.38;1.23;;;;;;;;;;4981134;28;20037;-81
2021/05/15 08:54:22;;;;;;;3.65;1.10;;;;;;;;;;4997464;28;20702;-80
2021/05/15 08:56:49;;;;;;;2.42;1.20;;;;;;;;;;4981274;28;20439;-80
2021/05/15 08:59:15;;;;;;;4.47;1.40;;;;;;;;;;4997573;28;20041;-80
2021/05/15 09:01:44;;;;;;;7.25;1.70;;;;;;;;;;4997342;28;20050;-79
2021/05/15 09:04:09;;;;;;;3.25;1.30;;;;;;;;;;4980792;28;20022;-80
2021/05/15 09:06:38;;;;;;;4.95;1.88;;;;;;;;;;4980738;28;20103;-79
2021/05/15 09:09:04;;;;;;;7.22;1.30;;;;;;;;;;4980968;28;20026;-79
2021/05/15 09:11:29;;;;;;;3.65;1.33;;;;;;;;;;4997009;28;20462;-80
2021/05/15 09:13:55;;;;;;;4.43;1.50;;;;;;;;;;4996951;28;20065;-79
2021/05/15 09:16:20;;;;;;;5.30;1.38;;;;;;;;;;4980630;28;20046;-80
2021/05/15 09:18:46;;;;;;;6.65;1.40;;;;;;;;;;4996327;28;20084;-80
2021/05/15 09:21:14;;;;;;;4.93;1.73;;;;;;;;;;4996537;28;20034;-79
2021/05/15 09:23:42;;;;;;;5.88;1.80;;;;;;;;;;4981085;28;20038;-80
2021/05/15 09:26:09;;;;;;;2.45;1.23;;;;;;;;;;4980034;28;20045;-80
2021/05/15 09:28:38;;;;;;;2.65;1.58;;;;;;;;;;4980763;28;20053;-79
2021/05/15 09:31:23;;;;;;;4.85;1.48;;;;;;;;;;5014350;28;20103;-80
2021/05/15 09:33:53;;;;;;;2.58;1.08;;;;;;;;;;5011701;28;20088;-80
2021/05/15 09:36:27;;;;;;;3.58;1.50;;;;;;;;;;4997404;28;20041;-79
2021/05/15 09:39:02;;;;;;;3.97;1.63;;;;;;;;;;4996512;28;20097;-80
2021/05/15 09:41:37;;;;;;;7.55;2.15;;;;;;;;;;5012408;28;20590;-80
2021/05/15 09:44:04;;;;;;;3.17;1.40;;;;;;;;;;4995063;28;20099;-81
2021/05/15 09:46:30;;;;;;;5.20;1.80;;;;;;;;;;4977812;28;20066;-81
2021/05/15 09:48:55;;;;;;;6.45;1.50;;;;;;;;;;4995785;28;20073;-82
2021/05/15 09:51:21;;;;;;;5.18;1.40;;;;;;;;;;4996515;28;20034;-83
2021/05/15 09:53:46;;;;;;;4.25;1.40;;;;;;;;;;4980074;28;20104;-82
2021/05/15 09:56:12;;;;;;;3.88;1.05;;;;;;;;;;4980102;28;20095;-80
2021/05/15 09:58:37;;;;;;;9.13;1.77;;;;;;;;;;4979967;28;20305;-80
2021/05/15 10:01:03;;;;;;;5.75;1.17;;;;;;;;;;4996359;28;20045;-80
2021/05/15 10:03:31;;;;;;;4.55;1.30;;;;;;;;;;4995905;28;20041;-80
2021/05/15 10:06:01;;;;;;;4.40;1.10;;;;;;;;;;4979644;28;20033;-80
2021/05/15 10:08:27;;;;;;;6.05;0.80;;;;;;;;;;4996219;28;20040;-80
2021/05/15 10:10:53;;;;;;;3.05;0.80;;;;;;;;;;4979534;28;20511;-80
2021/05/15 10:13:22;;;;;;;4.32;1.10;;;;;;;;;;5012127;28;20057;-80
2021/05/15 10:15:47;;;;;;;4.30;0.98;;;;;;;;;;5012265;28;20496;-80
2021/05/15 10:18:13;;;;;;;1.42;0.60;;;;;;;;;;4979848;28;20042;-80
2021/05/15 10:20:39;;;;;;;1.95;0.60;;;;;;;;;;4979444;28;20064;-80
2021/05/15 10:23:13;;;;;;;3.92;0.85;;;;;;;;;;4979160;28;20033;-79
2021/05/15 10:25:39;;;;;;;4.50;0.90;;;;;;;;;;4996329;28;20057;-79
2021/05/15 10:28:04;;;;;;;4.75;0.98;;;;;;;;;;4979590;28;20081;-80
2021/05/15 10:30:30;;;;;;;3.03;0.80;;;;;;;;;;4979029;28;20037;-78
2021/05/15 10:32:57;;;;;;;13.30;1.52;;;;;;;;;;5011493;28;20124;-79
2021/05/15 10:35:43;;;;;;;4.25;1.40;;;;;;;;;;4995618;28;20117;-78
2021/05/15 10:38:10;;;;;;;8.68;1.00;;;;;;;;;;4995600;28;20095;-80
2021/05/15 10:40:42;;;;;;;3.08;0.60;;;;;;;;;;4995529;28;20072;-79
2021/05/15 10:43:07;;;;;;;11.05;1.27;;;;;;;;;;5012775;28;20054;-80
2021/05/15 10:45:34;;;;;;;7.22;0.90;;;;;;;;;;4978994;28;20570;-80
2021/05/15 10:48:13;;;;;;;5.80;1.35;;;;;;;;;;4995131;28;20037;-80
2021/05/15 10:50:55;;;;;;;6.88;1.17;;;;;;;;;;4995521;28;20041;-80
2021/05/15 10:53:24;;;;;;;11.98;1.73;;;;;;;;;;5011562;28;20034;-79
2021/05/15 10:56:18;;;;;;;4.75;0.80;;;;;;;;;;4995520;28;20037;-79
2021/05/15 10:58:49;;;;;;;10.00;1.00;;;;;;;;;;4982836;28;20514;-79
2021/05/15 11:01:23;;;;;;;3.00;0.68;;;;;;;;;;4995052;28;20381;-79
2021/05/15 11:03:49;;;;;;;14.55;2.33;;;;;;;;;;4994777;28;20410;-80
2021/05/15 11:06:21;;;;;;;3.53;0.95;;;;;;;;;;4978819;28;20534;-79
2021/05/15 11:09:19;;;;;;;11.00;6.03;;;;;;;;;;4994804;28;20045;-80
2021/05/15 11:11:44;;;;;;;17.38;4.60;;;;;;;;;;4993835;28;20049;-79
2021/05/15 11:14:29;;;;;;;12.32;5.20;;;;;;;;;;4978476;28;20038;-78
2021/05/15 11:17:12;;;;;;;7.95;2.67;;;;;;;;;;4978103;28;20038;-79
2021/05/15 11:20:07;;;;;;;20.48;3.72;;;;;;;;;;4978787;28;20041;-79
2021/05/15 11:22:43;;;;;;;5.47;2.10;;;;;;;;;;4994664;28;20125;-79
2021/05/15 11:25:15;;;;;;;5.35;1.85;;;;;;;;;;4979616;28;20504;-79
2021/05/15 11:27:45;;;;;;;6.43;1.90;;;;;;;;;;5012063;28;20399;-79
2021/05/15 11:30:13;;;;;;;5.30;1.58;;;;;;;;;;4977713;28;20088;-79
2021/05/15 11:32:39;;;;;;;7.15;2.08;;;;;;;;;;4978765;28;20103;-79
2021/05/15 11:35:06;;;;;;;6.15;1.75;;;;;;;;;;4978390;28;20046;-79
2021/05/15 11:37:31;;;;;;;3.35;1.40;;;;;;;;;;4978865;28;20483;-79
2021/05/15 11:39:57;;;;;;;2.55;1.00;;;;;;;;;;5010738;28;20073;-79
2021/05/15 11:42:27;;;;;;;5.32;1.10;;;;;;;;;;5009624;28;20050;-79
2021/05/15 11:44:52;;;;;;;4.30;1.13;;;;;;;;;;4978146;28;20542;-79
2021/05/15 11:47:18;;;;;;;5.20;1.10;;;;;;;;;;4993733;28;20050;-79
2021/05/15 11:49:44;;;;;;;4.65;1.10;;;;;;;;;;4993313;28;20045;-79
2021/05/15 11:52:09;;;;;;;2.88;0.70;;;;;;;;;;5010724;28;20108;-79
2021/05/15 11:54:35;;;;;;;2.92;1.25;;;;;;;;;;4994333;28;20103;-79
2021/05/15 11:57:01;;;;;;;2.63;0.75;;;;;;;;;;4977079;28;20037;-79
2021/05/15 11:59:30;;;;;;;4.70;0.82;;;;;;;;;;4991014;28;20484;-79
2021/05/15 12:01:56;;;;;;;8.93;1.75;;;;;;;;;;4975638;28;20553;-78
2021/05/15 12:06:55;;;;;;;12.57;1.77;;;;;;;;;;4994811;28;20029;-80
2021/05/15 12:09:21;;;;;;;12.90;2.55;;;;;;;;;;5011817;28;20037;-79
2021/05/15 12:11:47;;;;;;;11.32;1.35;;;;;;;;;;4978126;28;20050;-80
2021/05/15 12:14:12;;;;;;;8.57;1.73;;;;;;;;;;5009312;28;20111;-80
2021/05/15 12:16:38;;;;;;;7.80;1.10;;;;;;;;;;4994030;28;20124;-79
2021/05/15 12:19:04;;;;;;;3.65;1.20;;;;;;;;;;4993819;28;20124;-80
2021/05/15 12:21:29;;;;;;;11.23;2.03;;;;;;;;;;4978069;28;20029;-80
2021/05/15 12:24:04;;;;;;;13.30;1.20;;;;;;;;;;4978090;28;20584;-79
2021/05/15 12:26:30;;;;;;;4.82;0.95;;;;;;;;;;4993818;28;20030;-78
2021/05/15 12:29:02;;;;;;;4.47;1.17;;;;;;;;;;4977574;28;20049;-80
2021/05/15 12:31:29;;;;;;;4.40;0.70;;;;;;;;;;4959724;28;20120;-82
2021/05/15 12:33:56;;;;;;;2.38;0.55;;;;;;;;;;5009751;28;20030;-81
2021/05/15 12:36:21;;;;;;;3.50;0.93;;;;;;;;;;4977568;28;20030;-81
2021/05/15 12:38:54;;;;;;;5.63;1.13;;;;;;;;;;5010025;28;20052;-81
2021/05/15 12:41:23;;;;;;;5.70;1.13;;;;;;;;;;4978103;28;20030;-82
2021/05/15 12:43:59;;;;;;;4.57;0.85;;;;;;;;;;4977436;28;21127;-80
2021/05/15 12:46:25;;;;;;;3.88;0.93;;;;;;;;;;4993533;28;20112;-80
2021/05/15 12:48:55;;;;;;;4.05;1.02;;;;;;;;;;4993633;28;20496;-83
2021/05/15 12:51:46;;;;;;;2.70;0.50;;;;;;;;;;4994120;28;20404;-81
2021/05/15 12:54:18;;;;;;;2.83;0.75;;;;;;;;;;4996509;28;20095;-81
2021/05/15 12:56:49;;;;;;;4.22;0.52;;;;;;;;;;4993764;28;20075;-83
2021/05/15 12:59:14;;;;;;;2.70;0.50;;;;;;;;;;4978200;28;20042;-84
2021/05/15 13:01:40;;;;;;;2.90;0.50;;;;;;;;;;4980966;28;20030;-83
2021/05/15 13:04:05;;;;;;;1.23;0.40;;;;;;;;;;4997083;28;20042;-82
2021/05/15 13:06:36;;;;;;;1.38;0.40;;;;;;;;;;4997625;28;20044;-83
2021/05/15 13:09:02;;;;;;;2.58;0.28;;;;;;;;;;4981620;28;20125;-82
2021/05/15 13:11:28;;;;;;;2.83;0.30;;;;;;;;;;4980381;28;20300;-80
2021/05/15 13:13:55;;;;;;;2.30;0.40;;;;;;;;;;4996912;28;20405;-81
2021/05/15 13:16:21;;;;;;;5.00;0.47;;;;;;;;;;4981098;28;20040;-81
2021/05/15 13:18:46;;;;;;;3.85;0.57;;;;;;;;;;4997207;28;20041;-81
2021/05/15 13:21:13;;;;;;;4.43;0.47;;;;;;;;;;4996829;28;20546;-79
2021/05/15 13:23:38;;;;;;;5.35;0.82;;;;;;;;;;4980963;28;20049;-78
2021/05/15 13:26:05;;;;;;;3.80;0.68;;;;;;;;;;4996578;28;20065;-84
2021/05/15 13:28:30;;;;;;;6.32;0.50;;;;;;;;;;4980962;28;20086;-81
2021/05/15 13:30:56;;;;;;;3.08;0.40;;;;;;;;;;4977300;28;20536;-81
2021/05/15 13:33:21;;;;;;;2.92;0.68;;;;;;;;;;5009071;28;20030;-82
2021/05/15 13:35:46;;;;;;;4.93;0.60;;;;;;;;;;4980149;28;20180;-80
2021/05/15 13:38:14;;;;;;;3.67;0.57;;;;;;;;;;4980928;28;20389;-86
2021/05/15 13:40:40;;;;;;;6.65;0.50;;;;;;;;;;4980396;28;20038;-80
2021/05/15 13:43:06;;;;;;;5.68;0.63;;;;;;;;;;4996700;28;20038;-82
2021/05/15 13:45:32;;;;;;;8.10;2.22;;;;;;;;;;4980054;28;20030;-80
2021/05/15 13:47:57;;;;;;;6.82;0.80;;;;;;;;;;4980277;28;20389;-79
2021/05/15 13:50:24;;;;;;;47.88;5.53;;;;;;;;;;4996683;28;20072;-86
2021/05/15 13:52:49;;;;;;;9.13;1.33;;;;;;;;;;4996509;28;20069;-81
2021/05/15 13:55:15;;;;;;;9.48;0.90;;;;;;;;;;4995980;28;20508;-81
2021/05/15 13:57:40;;;;;;;16.63;2.38;;;;;;;;;;4996104;28;20042;-82
2021/05/15 14:00:07;;;;;;;8.73;0.98;;;;;;;;;;4980202;28;20036;-84
2021/05/15 14:02:32;;;;;;;6.70;1.02;;;;;;;;;;4980011;28;20041;-82
2021/05/15 14:04:57;;;;;;;8.57;1.20;;;;;;;;;;4996454;28;20033;-84
2021/05/15 14:07:23;;;;;;;12.27;1.38;;;;;;;;;;4979973;28;20049;-82
2021/05/15 14:09:49;;;;;;;5.95;1.05;;;;;;;;;;4995696;28;20050;-82
2021/05/15 14:12:14;;;;;;;7.32;1.90;;;;;;;;;;4995057;28;20042;-82
2021/05/15 14:14:39;;;;;;;8.82;1.73;;;;;;;;;;5012403;28;20514;-81
2021/05/15 14:17:08;;;;;;;8.90;2.13;;;;;;;;;;5012434;28;20511;-84
2021/05/15 14:19:33;;;;;;;8.18;2.35;;;;;;;;;;4979934;28;20034;-82
2021/05/15 14:22:00;;;;;;;6.80;1.95;;;;;;;;;;4996163;28;20038;-84
2021/05/15 14:24:25;;;;;;;6.53;2.35;;;;;;;;;;4963242;28;20065;-85
2021/05/15 14:26:51;;;;;;;8.07;2.40;;;;;;;;;;4979459;28;20053;-82
2021/05/15 14:29:17;;;;;;;7.72;2.05;;;;;;;;;;4995570;28;20057;-81
2021/05/15 14:31:43;;;;;;;8.98;2.45;;;;;;;;;;5011919;28;20109;-80
2021/05/15 14:34:09;;;;;;;7.50;1.80;;;;;;;;;;4995695;28;20054;-81
2021/05/15 14:36:34;;;;;;;10.32;1.95;;;;;;;;;;5011858;28;20389;-80
2021/05/15 14:39:00;;;;;;;3.80;1.33;;;;;;;;;;5011788;28;20404;-80
2021/05/15 14:41:25;;;;;;;4.20;1.27;;;;;;;;;;4995773;28;20065;-81
2021/05/15 14:43:50;;;;;;;5.72;1.17;;;;;;;;;;4995709;28;20124;-82
2021/05/15 14:46:16;;;;;;;6.55;1.73;;;;;;;;;;5011568;28;20450;-83